sensor_id;sensor_type;location;lat;lon;timestamp;pressure;altitude;pressure_sealevel;temperature;humidity
79374;BME280;68844;53.128;17.958;2023-05-07T00:02:09;101855.34;;;4.66;84.31
79374;BME280;68844;53.128;17.958;2023-05-07T00:04:36;101852.41;;;4.64;84.19
79374;BME280;68844;53.128;17.958;2023-05-07T00:07:04;101857.55;;;4.58;84.53
79374;BME280;68844;53.128;17.958;2023-05-07T00:09:32;101854.16;;;4.51;84.22
79374;BME280;68844;53.128;17.958;2023-05-07T00:11:58;101857.22;;;4.44;84.36
79374;BME280;68844;53.128;17.958;2023-05-07T00:14:25;101848.41;;;4.38;84.30
79374;BME280;68844;53.128;17.958;2023-05-07T00:16:52;101848.63;;;4.35;83.92
79374;BME280;68844;53.128;17.958;2023-05-07T00:19:19;101851.73;;;4.25;83.98
79374;BME280;68844;53.128;17.958;2023-05-07T00:21:46;101854.27;;;4.18;84.43
79374;BME280;68844;53.128;17.958;2023-05-07T00:24:13;101852.80;;;4.11;84.41
79374;BME280;68844;53.128;17.958;2023-05-07T00:26:40;101849.38;;;4.05;84.43
79374;BME280;68844;53.128;17.958;2023-05-07T00:29:07;101854.14;;;4.00;84.03
79374;BME280;68844;53.128;17.958;2023-05-07T00:31:34;101858.21;;;3.95;84.30
79374;BME280;68844;53.128;17.958;2023-05-07T00:34:02;101863.85;;;3.90;84.58
79374;BME280;68844;53.128;17.958;2023-05-07T00:36:28;101864.25;;;3.85;84.55
79374;BME280;68844;53.128;17.958;2023-05-07T00:38:57;101864.83;;;3.80;84.58
79374;BME280;68844;53.128;17.958;2023-05-07T00:41:25;101868.00;;;3.77;84.38
79374;BME280;68844;53.128;17.958;2023-05-07T00:43:52;101868.41;;;3.72;84.55
79374;BME280;68844;53.128;17.958;2023-05-07T00:46:20;101869.38;;;3.63;84.60
79374;BME280;68844;53.128;17.958;2023-05-07T00:48:48;101872.05;;;3.57;84.54
79374;BME280;68844;53.128;17.958;2023-05-07T00:51:17;101871.63;;;3.48;84.58
79374;BME280;68844;53.128;17.958;2023-05-07T00:53:46;101875.34;;;3.42;84.52
79374;BME280;68844;53.128;17.958;2023-05-07T00:56:13;101876.60;;;3.37;84.54
79374;BME280;68844;53.128;17.958;2023-05-07T00:58:40;101882.20;;;3.33;84.66
79374;BME280;68844;53.128;17.958;2023-05-07T01:01:07;101880.86;;;3.28;84.79
79374;BME280;68844;53.128;17.958;2023-05-07T01:03:34;101882.70;;;3.17;84.61
79374;BME280;68844;53.128;17.958;2023-05-07T01:06:01;101880.48;;;3.11;84.70
79374;BME280;68844;53.128;17.958;2023-05-07T01:08:29;101877.04;;;3.05;84.70
79374;BME280;68844;53.128;17.958;2023-05-07T01:10:59;101875.00;;;3.00;84.67
79374;BME280;68844;53.128;17.958;2023-05-07T01:13:27;101876.95;;;2.95;84.62
79374;BME280;68844;53.128;17.958;2023-05-07T01:15:54;101878.40;;;2.89;85.19
79374;BME280;68844;53.128;17.958;2023-05-07T01:18:21;101880.54;;;2.80;84.73
79374;BME280;68844;53.128;17.958;2023-05-07T01:20:48;101883.38;;;2.74;84.63
79374;BME280;68844;53.128;17.958;2023-05-07T01:23:15;101883.39;;;2.68;84.79
79374;BME280;68844;53.128;17.958;2023-05-07T01:25:54;101883.62;;;2.62;85.10
79374;BME280;68844;53.128;17.958;2023-05-07T01:28:22;101886.27;;;2.55;85.21
79374;BME280;68844;53.128;17.958;2023-05-07T01:30:53;101887.70;;;2.49;85.08
79374;BME280;68844;53.128;17.958;2023-05-07T01:33:21;101892.42;;;2.45;85.01
79374;BME280;68844;53.128;17.958;2023-05-07T01:35:51;101891.73;;;2.40;84.85
79374;BME280;68844;53.128;17.958;2023-05-07T01:38:21;101891.07;;;2.35;85.07
79374;BME280;68844;53.128;17.958;2023-05-07T01:40:49;101891.27;;;2.30;85.18
79374;BME280;68844;53.128;17.958;2023-05-07T01:43:17;101897.55;;;2.24;85.05
79374;BME280;68844;53.128;17.958;2023-05-07T01:45:44;101897.41;;;2.19;85.22
79374;BME280;68844;53.128;17.958;2023-05-07T01:48:13;101901.40;;;2.17;85.43
79374;BME280;68844;53.128;17.958;2023-05-07T01:50:44;101904.20;;;2.14;85.11
79374;BME280;68844;53.128;17.958;2023-05-07T01:53:11;101900.39;;;2.10;85.32
79374;BME280;68844;53.128;17.958;2023-05-07T01:55:38;101902.67;;;2.04;85.32
79374;BME280;68844;53.128;17.958;2023-05-07T01:58:06;101902.33;;;2.01;85.38
79374;BME280;68844;53.128;17.958;2023-05-07T02:00:34;101906.31;;;2.02;85.27
79374;BME280;68844;53.128;17.958;2023-05-07T02:03:01;101907.55;;;2.00;85.37
79374;BME280;68844;53.128;17.958;2023-05-07T02:05:50;101911.02;;;1.97;85.32
79374;BME280;68844;53.128;17.958;2023-05-07T02:08:24;101911.02;;;1.96;85.61
79374;BME280;68844;53.128;17.958;2023-05-07T02:11:18;101912.61;;;1.91;85.48
79374;BME280;68844;53.128;17.958;2023-05-07T02:14:14;101912.10;;;1.88;85.18
79374;BME280;68844;53.128;17.958;2023-05-07T02:16:42;101908.98;;;1.84;85.47
79374;BME280;68844;53.128;17.958;2023-05-07T02:19:11;101907.44;;;1.79;85.24
79374;BME280;68844;53.128;17.958;2023-05-07T02:21:39;101909.53;;;1.75;85.23
79374;BME280;68844;53.128;17.958;2023-05-07T02:24:06;101911.80;;;1.68;84.94
79374;BME280;68844;53.128;17.958;2023-05-07T02:26:33;101914.40;;;1.65;85.18
79374;BME280;68844;53.128;17.958;2023-05-07T02:29:01;101919.79;;;1.64;85.12
79374;BME280;68844;53.128;17.958;2023-05-07T02:31:27;101923.96;;;1.58;85.16
79374;BME280;68844;53.128;17.958;2023-05-07T02:33:54;101924.15;;;1.55;85.20
79374;BME280;68844;53.128;17.958;2023-05-07T02:36:21;101925.54;;;1.52;85.38
79374;BME280;68844;53.128;17.958;2023-05-07T02:38:53;101925.88;;;1.52;85.27
79374;BME280;68844;53.128;17.958;2023-05-07T02:41:20;101925.36;;;1.50;85.39
79374;BME280;68844;53.128;17.958;2023-05-07T02:43:48;101926.58;;;1.45;85.54
79374;BME280;68844;53.128;17.958;2023-05-07T02:46:14;101925.56;;;1.38;85.77
79374;BME280;68844;53.128;17.958;2023-05-07T02:48:45;101926.24;;;1.33;85.64
79374;BME280;68844;53.128;17.958;2023-05-07T02:51:12;101925.73;;;1.34;85.45
79374;BME280;68844;53.128;17.958;2023-05-07T02:53:39;101924.34;;;1.36;85.54
79374;BME280;68844;53.128;17.958;2023-05-07T02:56:06;101923.81;;;1.35;85.75
79374;BME280;68844;53.128;17.958;2023-05-07T02:58:33;101927.98;;;1.33;85.60
79374;BME280;68844;53.128;17.958;2023-05-07T03:01:01;101925.38;;;1.28;85.51
79374;BME280;68844;53.128;17.958;2023-05-07T03:03:32;101927.11;;;1.27;85.53
79374;BME280;68844;53.128;17.958;2023-05-07T03:05:59;101929.54;;;1.26;85.30
79374;BME280;68844;53.128;17.958;2023-05-07T03:08:26;101928.84;;;1.26;85.21
79374;BME280;68844;53.128;17.958;2023-05-07T03:10:53;101931.61;;;1.25;85.41
79374;BME280;68844;53.128;17.958;2023-05-07T03:13:20;101940.13;;;1.24;85.27
79374;BME280;68844;53.128;17.958;2023-05-07T03:15:48;101940.48;;;1.21;85.32
79374;BME280;68844;53.128;17.958;2023-05-07T03:18:16;101945.50;;;1.24;85.32
79374;BME280;68844;53.128;17.958;2023-05-07T03:20:43;101947.24;;;1.27;85.46
79374;BME280;68844;53.128;17.958;2023-05-07T03:23:09;101947.41;;;1.27;85.42
79374;BME280;68844;53.128;17.958;2023-05-07T03:25:36;101949.15;;;1.27;85.28
79374;BME280;68844;53.128;17.958;2023-05-07T03:28:04;101949.66;;;1.27;85.31
79374;BME280;68844;53.128;17.958;2023-05-07T03:30:38;101953.32;;;1.29;85.23
79374;BME280;68844;53.128;17.958;2023-05-07T03:33:04;101953.31;;;1.33;85.06
79374;BME280;68844;53.128;17.958;2023-05-07T03:35:32;101954.69;;;1.37;85.00
79374;BME280;68844;53.128;17.958;2023-05-07T03:37:58;101960.27;;;1.40;85.04
79374;BME280;68844;53.128;17.958;2023-05-07T03:40:27;101962.16;;;1.44;84.90
79374;BME280;68844;53.128;17.958;2023-05-07T03:42:54;101968.92;;;1.50;84.78
79374;BME280;68844;53.128;17.958;2023-05-07T03:45:23;101968.76;;;1.56;84.80
79374;BME280;68844;53.128;17.958;2023-05-07T03:47:57;101972.23;;;1.62;84.89
79374;BME280;68844;53.128;17.958;2023-05-07T03:50:24;101970.66;;;1.67;84.85
79374;BME280;68844;53.128;17.958;2023-05-07T03:52:51;101969.60;;;1.76;84.92
79374;BME280;68844;53.128;17.958;2023-05-07T03:55:20;101972.21;;;1.81;84.67
79374;BME280;68844;53.128;17.958;2023-05-07T03:57:50;101982.27;;;1.82;84.76
79374;BME280;68844;53.128;17.958;2023-05-07T04:00:18;101984.70;;;1.91;84.83
79374;BME280;68844;53.128;17.958;2023-05-07T04:02:49;101982.77;;;2.03;84.96
79374;BME280;68844;53.128;17.958;2023-05-07T04:05:22;101984.83;;;2.14;84.90
79374;BME280;68844;53.128;17.958;2023-05-07T04:07:52;101988.61;;;2.26;84.99
79374;BME280;68844;53.128;17.958;2023-05-07T04:10:21;101988.39;;;2.38;85.03
79374;BME280;68844;53.128;17.958;2023-05-07T04:12:49;101994.43;;;2.51;84.58
79374;BME280;68844;53.128;17.958;2023-05-07T04:15:19;101998.89;;;2.65;84.59
79374;BME280;68844;53.128;17.958;2023-05-07T04:17:46;101998.16;;;2.75;84.71
79374;BME280;68844;53.128;17.958;2023-05-07T04:20:16;102000.86;;;2.88;84.65
79374;BME280;68844;53.128;17.958;2023-05-07T04:22:44;102004.89;;;3.78;84.15
79374;BME280;68844;53.128;17.958;2023-05-07T04:25:12;102003.88;;;4.99;83.42
79374;BME280;68844;53.128;17.958;2023-05-07T04:27:38;102004.81;;;4.95;82.17
79374;BME280;68844;53.128;17.958;2023-05-07T04:30:06;102005.52;;;6.13;82.46
79374;BME280;68844;53.128;17.958;2023-05-07T04:32:35;102004.70;;;7.91;79.69
79374;BME280;68844;53.128;17.958;2023-05-07T04:35:04;102002.59;;;9.48;79.01
79374;BME280;68844;53.128;17.958;2023-05-07T04:37:32;102000.17;;;10.82;73.74
79374;BME280;68844;53.128;17.958;2023-05-07T04:39:59;102004.98;;;11.87;72.38
79374;BME280;68844;53.128;17.958;2023-05-07T04:42:27;102004.66;;;12.93;69.37
79374;BME280;68844;53.128;17.958;2023-05-07T04:44:55;102005.95;;;14.11;71.29
79374;BME280;68844;53.128;17.958;2023-05-07T04:47:22;102012.30;;;15.00;68.34
79374;BME280;68844;53.128;17.958;2023-05-07T04:49:49;102012.14;;;15.72;62.85
79374;BME280;68844;53.128;17.958;2023-05-07T04:52:15;102013.02;;;16.37;49.86
79374;BME280;68844;53.128;17.958;2023-05-07T04:54:43;102012.93;;;16.79;49.85
79374;BME280;68844;53.128;17.958;2023-05-07T04:57:11;102009.99;;;17.14;53.41
79374;BME280;68844;53.128;17.958;2023-05-07T04:59:38;102014.00;;;17.51;51.01
79374;BME280;68844;53.128;17.958;2023-05-07T05:02:05;102014.96;;;17.61;49.48
79374;BME280;68844;53.128;17.958;2023-05-07T05:04:32;102016.17;;;17.80;50.67
79374;BME280;68844;53.128;17.958;2023-05-07T05:06:59;102014.19;;;18.17;50.94
79374;BME280;68844;53.128;17.958;2023-05-07T05:09:26;102021.02;;;18.47;48.29
79374;BME280;68844;53.128;17.958;2023-05-07T05:11:53;102020.61;;;18.78;47.66
79374;BME280;68844;53.128;17.958;2023-05-07T05:14:20;102022.02;;;19.25;42.86
79374;BME280;68844;53.128;17.958;2023-05-07T05:16:47;102029.93;;;20.00;45.05
79374;BME280;68844;53.128;17.958;2023-05-07T05:19:15;102027.90;;;20.43;40.61
79374;BME280;68844;53.128;17.958;2023-05-07T05:21:43;102026.68;;;20.87;43.23
79374;BME280;68844;53.128;17.958;2023-05-07T05:24:11;102025.88;;;21.46;39.24
79374;BME280;68844;53.128;17.958;2023-05-07T05:26:39;102028.11;;;22.30;41.67
79374;BME280;68844;53.128;17.958;2023-05-07T05:29:06;102029.36;;;21.79;32.84
79374;BME280;68844;53.128;17.958;2023-05-07T05:31:35;102027.76;;;21.25;35.09
79374;BME280;68844;53.128;17.958;2023-05-07T05:34:03;102033.02;;;21.44;36.60
79374;BME280;68844;53.128;17.958;2023-05-07T05:36:30;102035.84;;;21.55;35.98
79374;BME280;68844;53.128;17.958;2023-05-07T05:38:57;102037.52;;;21.98;36.89
79374;BME280;68844;53.128;17.958;2023-05-07T05:41:24;102033.38;;;22.62;36.09
79374;BME280;68844;53.128;17.958;2023-05-07T05:43:52;102028.80;;;23.25;33.61
79374;BME280;68844;53.128;17.958;2023-05-07T05:46:19;102028.88;;;23.58;31.76
79374;BME280;68844;53.128;17.958;2023-05-07T05:48:47;102039.09;;;24.15;32.75
79374;BME280;68844;53.128;17.958;2023-05-07T05:51:13;102036.56;;;24.52;32.49
79374;BME280;68844;53.128;17.958;2023-05-07T05:53:40;102038.36;;;24.03;29.53
79374;BME280;68844;53.128;17.958;2023-05-07T05:56:07;102038.59;;;23.97;30.47
79374;BME280;68844;53.128;17.958;2023-05-07T05:58:34;102044.44;;;24.23;30.96
79374;BME280;68844;53.128;17.958;2023-05-07T06:01:03;102047.83;;;24.36;29.55
79374;BME280;68844;53.128;17.958;2023-05-07T06:03:32;102046.13;;;25.02;30.36
79374;BME280;68844;53.128;17.958;2023-05-07T06:06:00;102044.20;;;25.02;27.81
79374;BME280;68844;53.128;17.958;2023-05-07T06:08:29;102046.59;;;25.22;28.64
79374;BME280;68844;53.128;17.958;2023-05-07T06:10:57;102043.86;;;26.10;29.08
79374;BME280;68844;53.128;17.958;2023-05-07T06:13:24;102044.52;;;26.01;26.41
79374;BME280;68844;53.128;17.958;2023-05-07T06:15:51;102045.11;;;25.33;26.03
79374;BME280;68844;53.128;17.958;2023-05-07T06:18:18;102046.90;;;25.13;26.39
79374;BME280;68844;53.128;17.958;2023-05-07T06:20:45;102043.84;;;25.99;26.71
79374;BME280;68844;53.128;17.958;2023-05-07T06:23:17;102041.48;;;26.86;25.63
79374;BME280;68844;53.128;17.958;2023-05-07T06:25:51;102043.14;;;27.31;24.91
79374;BME280;68844;53.128;17.958;2023-05-07T06:28:18;102050.27;;;26.16;24.89
79374;BME280;68844;53.128;17.958;2023-05-07T06:30:46;102044.54;;;26.53;23.92
79374;BME280;68844;53.128;17.958;2023-05-07T06:33:13;102047.88;;;26.95;24.16
79374;BME280;68844;53.128;17.958;2023-05-07T06:35:40;102052.81;;;27.12;24.28
79374;BME280;68844;53.128;17.958;2023-05-07T06:38:07;102053.84;;;27.89;23.91
79374;BME280;68844;53.128;17.958;2023-05-07T06:40:33;102051.60;;;27.91;23.29
79374;BME280;68844;53.128;17.958;2023-05-07T06:43:00;102051.88;;;27.97;23.65
79374;BME280;68844;53.128;17.958;2023-05-07T06:45:37;102048.73;;;28.14;22.23
79374;BME280;68844;53.128;17.958;2023-05-07T06:48:04;102049.80;;;27.88;22.58
79374;BME280;68844;53.128;17.958;2023-05-07T06:50:33;102054.83;;;28.19;22.95
79374;BME280;68844;53.128;17.958;2023-05-07T06:53:01;102057.63;;;28.17;21.53
79374;BME280;68844;53.128;17.958;2023-05-07T06:55:28;102061.09;;;27.71;22.12
79374;BME280;68844;53.128;17.958;2023-05-07T06:57:55;102059.84;;;27.26;21.65
79374;BME280;68844;53.128;17.958;2023-05-07T07:00:25;102060.02;;;27.38;22.17
79374;BME280;68844;53.128;17.958;2023-05-07T07:02:55;102067.34;;;27.78;20.90
79374;BME280;68844;53.128;17.958;2023-05-07T07:05:24;102071.13;;;26.48;22.20
79374;BME280;68844;53.128;17.958;2023-05-07T07:07:51;102071.20;;;26.54;22.86
79374;BME280;68844;53.128;17.958;2023-05-07T07:10:22;102078.81;;;27.16;21.98
79374;BME280;68844;53.128;17.958;2023-05-07T07:12:50;102074.77;;;27.57;22.26
79374;BME280;68844;53.128;17.958;2023-05-07T07:15:17;102073.98;;;28.14;21.89
79374;BME280;68844;53.128;17.958;2023-05-07T07:17:44;102074.97;;;28.40;21.30
79374;BME280;68844;53.128;17.958;2023-05-07T07:20:11;102075.73;;;28.73;21.39
79374;BME280;68844;53.128;17.958;2023-05-07T07:22:37;102069.94;;;29.44;20.72
79374;BME280;68844;53.128;17.958;2023-05-07T07:25:05;102072.30;;;29.24;20.29
79374;BME280;68844;53.128;17.958;2023-05-07T07:27:32;102076.20;;;28.99;19.90
79374;BME280;68844;53.128;17.958;2023-05-07T07:29:59;102075.77;;;28.11;21.38
79374;BME280;68844;53.128;17.958;2023-05-07T07:32:26;102080.13;;;28.48;19.93
79374;BME280;68844;53.128;17.958;2023-05-07T07:34:54;102080.09;;;27.77;20.52
79374;BME280;68844;53.128;17.958;2023-05-07T07:37:21;102085.42;;;28.16;19.84
79374;BME280;68844;53.128;17.958;2023-05-07T07:39:48;102083.35;;;27.45;19.60
79374;BME280;68844;53.128;17.958;2023-05-07T07:42:15;102079.55;;;27.16;20.22
79374;BME280;68844;53.128;17.958;2023-05-07T07:44:41;102086.02;;;28.11;18.52
79374;BME280;68844;53.128;17.958;2023-05-07T07:47:10;102082.47;;;27.04;19.35
79374;BME280;68844;53.128;17.958;2023-05-07T07:49:38;102084.92;;;27.55;18.95
79374;BME280;68844;53.128;17.958;2023-05-07T07:52:06;102086.22;;;26.84;19.80
79374;BME280;68844;53.128;17.958;2023-05-07T07:54:35;102085.73;;;26.98;19.48
79374;BME280;68844;53.128;17.958;2023-05-07T07:57:02;102084.87;;;27.08;20.17
79374;BME280;68844;53.128;17.958;2023-05-07T07:59:30;102084.23;;;28.07;18.78
79374;BME280;68844;53.128;17.958;2023-05-07T08:01:57;102087.56;;;27.67;18.30
79374;BME280;68844;53.128;17.958;2023-05-07T08:04:25;102087.48;;;28.01;18.58
79374;BME280;68844;53.128;17.958;2023-05-07T08:06:52;102087.73;;;27.88;17.99
79374;BME280;68844;53.128;17.958;2023-05-07T08:09:21;102083.79;;;27.52;17.57
79374;BME280;68844;53.128;17.958;2023-05-07T08:11:49;102091.13;;;26.99;17.64
79374;BME280;68844;53.128;17.958;2023-05-07T08:14:17;102090.77;;;26.45;18.83
79374;BME280;68844;53.128;17.958;2023-05-07T08:16:46;102090.16;;;27.25;18.72
79374;BME280;68844;53.128;17.958;2023-05-07T08:19:13;102089.00;;;28.04;17.36
79374;BME280;68844;53.128;17.958;2023-05-07T08:21:40;102087.04;;;28.08;17.01
79374;BME280;68844;53.128;17.958;2023-05-07T08:24:07;102091.27;;;27.19;17.66
79374;BME280;68844;53.128;17.958;2023-05-07T08:26:35;102091.15;;;26.52;17.40
79374;BME280;68844;53.128;17.958;2023-05-07T08:29:03;102089.39;;;27.20;17.34
79374;BME280;68844;53.128;17.958;2023-05-07T08:31:30;102087.65;;;26.98;17.84
79374;BME280;68844;53.128;17.958;2023-05-07T08:33:58;102088.80;;;26.93;17.29
79374;BME280;68844;53.128;17.958;2023-05-07T08:36:25;102091.80;;;26.68;17.79
79374;BME280;68844;53.128;17.958;2023-05-07T08:38:52;102090.83;;;27.17;17.02
79374;BME280;68844;53.128;17.958;2023-05-07T08:41:20;102097.73;;;26.65;17.09
79374;BME280;68844;53.128;17.958;2023-05-07T08:43:48;102094.38;;;27.14;16.99
79374;BME280;68844;53.128;17.958;2023-05-07T08:46:19;102094.78;;;26.28;17.59
79374;BME280;68844;53.128;17.958;2023-05-07T08:48:51;102100.06;;;25.84;18.58
79374;BME280;68844;53.128;17.958;2023-05-07T08:51:19;102101.38;;;25.39;18.21
79374;BME280;68844;53.128;17.958;2023-05-07T08:53:48;102101.31;;;24.73;18.74
79374;BME280;68844;53.128;17.958;2023-05-07T08:56:18;102097.91;;;25.63;18.36
79374;BME280;68844;53.128;17.958;2023-05-07T08:58:47;102105.04;;;24.80;19.08
79374;BME280;68844;53.128;17.958;2023-05-07T09:01:16;102107.44;;;25.08;18.97
79374;BME280;68844;53.128;17.958;2023-05-07T09:03:46;102105.24;;;25.19;18.67
79374;BME280;68844;53.128;17.958;2023-05-07T09:06:15;102108.78;;;23.86;19.16
79374;BME280;68844;53.128;17.958;2023-05-07T09:08:49;102107.41;;;23.59;19.90
79374;BME280;68844;53.128;17.958;2023-05-07T09:11:21;102110.30;;;23.78;20.62
79374;BME280;68844;53.128;17.958;2023-05-07T09:13:58;102103.94;;;24.63;19.68
79374;BME280;68844;53.128;17.958;2023-05-07T09:16:30;102107.04;;;24.04;20.30
79374;BME280;68844;53.128;17.958;2023-05-07T09:18:59;102109.62;;;24.42;19.99
79374;BME280;68844;53.128;17.958;2023-05-07T09:21:27;102102.33;;;25.32;19.10
79374;BME280;68844;53.128;17.958;2023-05-07T09:23:55;102103.42;;;25.71;18.91
79374;BME280;68844;53.128;17.958;2023-05-07T09:26:27;102099.64;;;26.10;18.78
79374;BME280;68844;53.128;17.958;2023-05-07T09:28:55;102097.77;;;26.16;18.56
79374;BME280;68844;53.128;17.958;2023-05-07T09:31:22;102102.49;;;25.42;18.56
79374;BME280;68844;53.128;17.958;2023-05-07T09:33:50;102100.45;;;24.98;19.17
79374;BME280;68844;53.128;17.958;2023-05-07T09:36:19;102104.27;;;23.63;19.89
79374;BME280;68844;53.128;17.958;2023-05-07T09:38:47;102101.33;;;23.60;20.85
79374;BME280;68844;53.128;17.958;2023-05-07T09:41:14;102105.88;;;24.66;20.45
79374;BME280;68844;53.128;17.958;2023-05-07T09:44:01;102104.27;;;24.95;19.72
79374;BME280;68844;53.128;17.958;2023-05-07T09:46:33;102099.96;;;25.72;19.31
79374;BME280;68844;53.128;17.958;2023-05-07T09:49:07;102098.60;;;25.81;18.92
79374;BME280;68844;53.128;17.958;2023-05-07T09:51:49;102101.96;;;25.69;19.18
79374;BME280;68844;53.128;17.958;2023-05-07T09:54:17;102108.30;;;25.66;19.16
79374;BME280;68844;53.128;17.958;2023-05-07T09:56:48;102107.64;;;25.24;19.28
79374;BME280;68844;53.128;17.958;2023-05-07T09:59:16;102112.31;;;25.30;19.77
79374;BME280;68844;53.128;17.958;2023-05-07T10:01:44;102111.70;;;25.80;19.31
79374;BME280;68844;53.128;17.958;2023-05-07T10:04:12;102120.85;;;26.55;18.87
79374;BME280;68844;53.128;17.958;2023-05-07T10:06:40;102120.58;;;25.57;19.13
79374;BME280;68844;53.128;17.958;2023-05-07T10:09:08;102122.55;;;25.21;19.38
79374;BME280;68844;53.128;17.958;2023-05-07T10:11:35;102114.73;;;24.39;20.82
79374;BME280;68844;53.128;17.958;2023-05-07T10:14:04;102116.48;;;24.83;20.57
79374;BME280;68844;53.128;17.958;2023-05-07T10:16:35;102122.00;;;24.75;20.65
79374;BME280;68844;53.128;17.958;2023-05-07T10:19:06;102120.91;;;23.56;21.32
79374;BME280;68844;53.128;17.958;2023-05-07T10:21:36;102118.45;;;24.09;21.28
79374;BME280;68844;53.128;17.958;2023-05-07T10:24:06;102119.46;;;23.43;21.65
79374;BME280;68844;53.128;17.958;2023-05-07T10:26:47;102122.88;;;23.70;21.59
79374;BME280;68844;53.128;17.958;2023-05-07T10:29:24;102123.36;;;23.77;20.99
79374;BME280;68844;53.128;17.958;2023-05-07T10:31:57;102125.90;;;22.17;22.53
79374;BME280;68844;53.128;17.958;2023-05-07T10:34:33;102126.13;;;22.06;23.60
79374;BME280;68844;53.128;17.958;2023-05-07T10:37:03;102132.93;;;20.80;24.59
79374;BME280;68844;53.128;17.958;2023-05-07T10:39:31;102128.40;;;19.62;26.36
79374;BME280;68844;53.128;17.958;2023-05-07T10:42:08;102122.95;;;19.39;26.59
79374;BME280;68844;53.128;17.958;2023-05-07T10:44:35;102125.59;;;20.24;26.10
79374;BME280;68844;53.128;17.958;2023-05-07T10:47:16;102132.23;;;20.57;26.05
79374;BME280;68844;53.128;17.958;2023-05-07T10:52:24;102119.05;;;21.55;24.49
79374;BME280;68844;53.128;17.958;2023-05-07T10:57:42;102113.35;;;22.32;24.54
79374;BME280;68844;53.128;17.958;2023-05-07T11:05:38;102116.88;;;21.77;24.14
79374;BME280;68844;53.128;17.958;2023-05-07T11:08:16;102126.88;;;20.96;24.91
79374;BME280;68844;53.128;17.958;2023-05-07T11:10:58;102129.65;;;20.88;25.55
79374;BME280;68844;53.128;17.958;2023-05-07T11:13:44;102131.00;;;20.50;25.91
79374;BME280;68844;53.128;17.958;2023-05-07T11:16:22;102132.45;;;20.75;25.72
79374;BME280;68844;53.128;17.958;2023-05-07T11:18:56;102129.54;;;20.73;25.70
79374;BME280;68844;53.128;17.958;2023-05-07T11:21:35;102130.09;;;21.14;25.97
79374;BME280;68844;53.128;17.958;2023-05-07T11:24:16;102129.92;;;21.36;25.18
79374;BME280;68844;53.128;17.958;2023-05-07T11:26:50;102129.95;;;21.45;26.19
79374;BME280;68844;53.128;17.958;2023-05-07T11:29:20;102132.45;;;21.77;25.27
79374;BME280;68844;53.128;17.958;2023-05-07T11:31:53;102128.48;;;21.36;25.37
79374;BME280;68844;53.128;17.958;2023-05-07T11:34:23;102126.64;;;21.14;25.57
79374;BME280;68844;53.128;17.958;2023-05-07T11:36:51;102125.68;;;20.47;26.02
79374;BME280;68844;53.128;17.958;2023-05-07T11:39:31;102126.25;;;19.89;27.03
79374;BME280;68844;53.128;17.958;2023-05-07T11:42:00;102129.16;;;19.82;26.88
79374;BME280;68844;53.128;17.958;2023-05-07T11:44:47;102129.87;;;19.86;27.34
79374;BME280;68844;53.128;17.958;2023-05-07T11:47:18;102127.41;;;19.37;26.68
79374;BME280;68844;53.128;17.958;2023-05-07T11:49:50;102132.61;;;18.66;27.67
79374;BME280;68844;53.128;17.958;2023-05-07T11:52:19;102129.58;;;18.76;27.66
79374;BME280;68844;53.128;17.958;2023-05-07T11:54:55;102132.99;;;18.26;27.62
79374;BME280;68844;53.128;17.958;2023-05-07T11:57:23;102138.15;;;17.26;29.50
79374;BME280;68844;53.128;17.958;2023-05-07T11:59:57;102139.73;;;17.20;30.68
79374;BME280;68844;53.128;17.958;2023-05-07T12:02:25;102138.66;;;16.95;30.82
79374;BME280;68844;53.128;17.958;2023-05-07T12:04:53;102139.27;;;16.87;30.95
79374;BME280;68844;53.128;17.958;2023-05-07T12:07:21;102139.66;;;17.58;31.27
79374;BME280;68844;53.128;17.958;2023-05-07T12:09:50;102137.52;;;18.01;30.39
79374;BME280;68844;53.128;17.958;2023-05-07T12:12:17;102136.81;;;18.07;31.15
79374;BME280;68844;53.128;17.958;2023-05-07T12:14:45;102140.45;;;17.92;30.81
79374;BME280;68844;53.128;17.958;2023-05-07T12:17:14;102141.20;;;17.86;30.25
79374;BME280;68844;53.128;17.958;2023-05-07T12:19:43;102135.06;;;18.19;30.18
79374;BME280;68844;53.128;17.958;2023-05-07T12:22:10;102144.27;;;17.63;30.76
79374;BME280;68844;53.128;17.958;2023-05-07T12:24:49;102145.85;;;17.19;31.11
79374;BME280;68844;53.128;17.958;2023-05-07T12:27:17;102138.05;;;17.21;31.20
79374;BME280;68844;53.128;17.958;2023-05-07T12:29:46;102133.33;;;17.59;30.07
79374;BME280;68844;53.128;17.958;2023-05-07T12:32:16;102133.23;;;17.96;29.38
79374;BME280;68844;53.128;17.958;2023-05-07T12:34:45;102140.13;;;17.53;29.52
79374;BME280;68844;53.128;17.958;2023-05-07T12:37:12;102131.33;;;17.93;29.36
79374;BME280;68844;53.128;17.958;2023-05-07T12:40:06;102132.06;;;18.32;28.54
79374;BME280;68844;53.128;17.958;2023-05-07T12:42:39;102139.33;;;18.06;28.92
79374;BME280;68844;53.128;17.958;2023-05-07T12:45:16;102133.11;;;18.79;28.68
79374;BME280;68844;53.128;17.958;2023-05-07T12:47:46;102126.89;;;19.34;27.36
79374;BME280;68844;53.128;17.958;2023-05-07T12:50:14;102134.52;;;20.22;26.88
79374;BME280;68844;53.128;17.958;2023-05-07T12:52:43;102135.46;;;20.01;26.01
79374;BME280;68844;53.128;17.958;2023-05-07T12:55:14;102136.71;;;19.95;26.60
79374;BME280;68844;53.128;17.958;2023-05-07T12:57:45;102137.18;;;19.63;26.42
79374;BME280;68844;53.128;17.958;2023-05-07T13:00:14;102139.44;;;19.73;26.76
79374;BME280;68844;53.128;17.958;2023-05-07T13:02:43;102132.10;;;19.76;26.47
79374;BME280;68844;53.128;17.958;2023-05-07T13:05:13;102132.42;;;19.93;26.75